sensor_id;sensor_type;location;lat;lon;timestamp;pressure;altitude;pressure_sealevel;temperature;humidity
52719;BME280;38616;42.140;24.760;2023-05-28T00:02:03;99241.88;;;19.95;66.32
52719;BME280;38616;42.140;24.760;2023-05-28T00:04:35;99240.50;;;19.88;66.21
52719;BME280;38616;42.140;24.760;2023-05-28T00:07:00;99247.47;;;19.70;66.90
52719;BME280;38616;42.140;24.760;2023-05-28T00:09:26;99245.16;;;19.72;66.90
52719;BME280;38616;42.140;24.760;2023-05-28T00:11:52;99251.13;;;19.74;66.36
52719;BME280;38616;42.140;24.760;2023-05-28T00:14:17;99253.22;;;19.64;66.97
52719;BME280;38616;42.140;24.760;2023-05-28T00:16:43;99252.28;;;19.73;66.89
52719;BME280;38616;42.140;24.760;2023-05-28T00:19:10;99257.00;;;19.72;66.45
52719;BME280;38616;42.140;24.760;2023-05-28T00:21:36;99248.53;;;19.65;66.13
52719;BME280;38616;42.140;24.760;2023-05-28T00:24:02;99245.53;;;19.70;66.62
52719;BME280;38616;42.140;24.760;2023-05-28T00:26:28;99255.03;;;19.44;66.43
52719;BME280;38616;42.140;24.760;2023-05-28T00:28:55;99239.59;;;19.27;66.46
52719;BME280;38616;42.140;24.760;2023-05-28T00:31:21;99243.25;;;19.31;66.40
52719;BME280;38616;42.140;24.760;2023-05-28T00:33:46;99247.84;;;19.27;66.74
52719;BME280;38616;42.140;24.760;2023-05-28T00:36:12;99252.78;;;19.22;66.13
52719;BME280;38616;42.140;24.760;2023-05-28T00:38:38;99251.50;;;19.31;66.06
52719;BME280;38616;42.140;24.760;2023-05-28T00:41:03;99236.59;;;19.32;65.46
52719;BME280;38616;42.140;24.760;2023-05-28T00:43:29;99250.56;;;19.40;65.24
52719;BME280;38616;42.140;24.760;2023-05-28T00:45:57;99235.94;;;19.11;65.73
52719;BME280;38616;42.140;24.760;2023-05-28T00:48:24;99249.91;;;18.81;65.40
52719;BME280;38616;42.140;24.760;2023-05-28T00:50:53;99248.31;;;18.92;65.99
52719;BME280;38616;42.140;24.760;2023-05-28T00:53:19;99245.78;;;19.24;65.09
52719;BME280;38616;42.140;24.760;2023-05-28T00:55:45;99245.13;;;19.15;64.93
52719;BME280;38616;42.140;24.760;2023-05-28T00:58:10;99226.84;;;19.23;64.58
52719;BME280;38616;42.140;24.760;2023-05-28T01:00:37;99230.06;;;19.25;65.03
52719;BME280;38616;42.140;24.760;2023-05-28T01:03:03;99227.41;;;19.28;64.93
52719;BME280;38616;42.140;24.760;2023-05-28T01:05:30;99225.00;;;19.27;65.37
52719;BME280;38616;42.140;24.760;2023-05-28T01:08:00;99225.38;;;19.25;65.31
52719;BME280;38616;42.140;24.760;2023-05-28T01:10:28;99227.75;;;19.27;64.51
52719;BME280;38616;42.140;24.760;2023-05-28T01:12:54;99220.91;;;19.49;64.09
52719;BME280;38616;42.140;24.760;2023-05-28T01:15:19;99218.28;;;19.53;64.45
52719;BME280;38616;42.140;24.760;2023-05-28T01:17:45;99215.34;;;19.61;65.03
52719;BME280;38616;42.140;24.760;2023-05-28T01:20:13;99209.16;;;19.64;64.90
52719;BME280;38616;42.140;24.760;2023-05-28T01:22:43;99208.41;;;19.52;63.91
52719;BME280;38616;42.140;24.760;2023-05-28T01:25:12;99206.25;;;19.45;62.69
52719;BME280;38616;42.140;24.760;2023-05-28T01:27:43;99201.00;;;19.40;62.85
52719;BME280;38616;42.140;24.760;2023-05-28T01:30:09;99204.28;;;19.17;62.90
52719;BME280;38616;42.140;24.760;2023-05-28T01:32:38;99198.31;;;19.15;63.52
52719;BME280;38616;42.140;24.760;2023-05-28T01:35:05;99202.63;;;19.28;62.93
52719;BME280;38616;42.140;24.760;2023-05-28T01:37:32;99197.38;;;19.23;63.30
52719;BME280;38616;42.140;24.760;2023-05-28T01:39:59;99198.75;;;19.29;62.70
52719;BME280;38616;42.140;24.760;2023-05-28T01:42:28;99205.22;;;19.09;62.22
52719;BME280;38616;42.140;24.760;2023-05-28T01:44:55;99204.50;;;19.12;63.03
52719;BME280;38616;42.140;24.760;2023-05-28T01:47:21;99215.06;;;19.10;62.77
52719;BME280;38616;42.140;24.760;2023-05-28T01:49:47;99204.38;;;19.08;61.94
52719;BME280;38616;42.140;24.760;2023-05-28T01:52:14;99204.28;;;18.92;62.27
52719;BME280;38616;42.140;24.760;2023-05-28T01:54:42;99200.28;;;18.77;62.53
52719;BME280;38616;42.140;24.760;2023-05-28T01:57:07;99200.38;;;18.93;62.40
52719;BME280;38616;42.140;24.760;2023-05-28T01:59:33;99201.69;;;18.58;62.60
52719;BME280;38616;42.140;24.760;2023-05-28T02:01:58;99210.03;;;18.87;61.88
52719;BME280;38616;42.140;24.760;2023-05-28T02:04:24;99207.72;;;18.76;61.46
52719;BME280;38616;42.140;24.760;2023-05-28T02:06:50;99209.56;;;18.60;61.69
52719;BME280;38616;42.140;24.760;2023-05-28T02:09:17;99212.09;;;18.90;61.49
52719;BME280;38616;42.140;24.760;2023-05-28T02:11:43;99201.41;;;19.01;60.54
52719;BME280;38616;42.140;24.760;2023-05-28T02:14:08;99184.81;;;18.85;60.82
52719;BME280;38616;42.140;24.760;2023-05-28T02:16:47;99193.34;;;19.20;60.54
52719;BME280;38616;42.140;24.760;2023-05-28T02:19:17;99198.09;;;19.08;60.96
52719;BME280;38616;42.140;24.760;2023-05-28T02:21:46;99195.47;;;18.74;60.98
52719;BME280;38616;42.140;24.760;2023-05-28T02:24:11;99191.34;;;18.80;60.97
52719;BME280;38616;42.140;24.760;2023-05-28T02:26:37;99191.59;;;18.75;61.75
52719;BME280;38616;42.140;24.760;2023-05-28T02:29:02;99189.06;;;18.82;61.75
52719;BME280;38616;42.140;24.760;2023-05-28T02:31:27;99184.81;;;18.72;61.91
52719;BME280;38616;42.140;24.760;2023-05-28T02:33:53;99199.94;;;18.29;62.70
52719;BME280;38616;42.140;24.760;2023-05-28T02:36:21;99190.34;;;18.48;63.29
52719;BME280;38616;42.140;24.760;2023-05-28T02:38:48;99194.66;;;18.61;62.74
52719;BME280;38616;42.140;24.760;2023-05-28T02:41:13;99197.00;;;18.46;62.88
52719;BME280;38616;42.140;24.760;2023-05-28T02:43:38;99190.31;;;18.60;62.61
52719;BME280;38616;42.140;24.760;2023-05-28T02:46:04;99198.69;;;18.51;62.59
52719;BME280;38616;42.140;24.760;2023-05-28T02:48:30;99208.78;;;18.59;62.38
52719;BME280;38616;42.140;24.760;2023-05-28T02:50:56;99216.47;;;19.03;61.10
52719;BME280;38616;42.140;24.760;2023-05-28T02:53:22;99215.84;;;19.10;61.24
52719;BME280;38616;42.140;24.760;2023-05-28T02:55:48;99217.69;;;19.18;61.11
52719;BME280;38616;42.140;24.760;2023-05-28T02:58:14;99221.03;;;18.87;61.77
52719;BME280;38616;42.140;24.760;2023-05-28T03:00:40;99229.41;;;18.66;62.03
52719;BME280;38616;42.140;24.760;2023-05-28T03:03:06;99238.59;;;18.70;62.92
52719;BME280;38616;42.140;24.760;2023-05-28T03:05:31;99235.59;;;18.75;62.71
52719;BME280;38616;42.140;24.760;2023-05-28T03:07:58;99241.91;;;18.51;62.70
52719;BME280;38616;42.140;24.760;2023-05-28T03:10:24;99245.13;;;18.53;63.22
52719;BME280;38616;42.140;24.760;2023-05-28T03:12:49;99239.97;;;18.64;63.35
52719;BME280;38616;42.140;24.760;2023-05-28T03:15:15;99249.47;;;18.79;63.41
52719;BME280;38616;42.140;24.760;2023-05-28T03:17:40;99244.22;;;18.98;62.96
52719;BME280;38616;42.140;24.760;2023-05-28T03:20:06;99240.41;;;18.90;62.97
52719;BME280;38616;42.140;24.760;2023-05-28T03:22:37;99238.22;;;18.84;63.15
52719;BME280;38616;42.140;24.760;2023-05-28T03:25:03;99244.22;;;18.98;63.96
52719;BME280;38616;42.140;24.760;2023-05-28T03:27:29;99243.84;;;19.12;63.36
52719;BME280;38616;42.140;24.760;2023-05-28T03:29:55;99245.19;;;19.31;63.33
52719;BME280;38616;42.140;24.760;2023-05-28T03:32:20;99250.25;;;19.29;63.96
52719;BME280;38616;42.140;24.760;2023-05-28T03:34:45;99250.94;;;19.26;64.12
52719;BME280;38616;42.140;24.760;2023-05-28T03:37:11;99251.06;;;19.17;66.17
52719;BME280;38616;42.140;24.760;2023-05-28T03:39:37;99245.69;;;19.08;67.93
52719;BME280;38616;42.140;24.760;2023-05-28T03:42:02;99253.72;;;19.01;68.02
52719;BME280;38616;42.140;24.760;2023-05-28T03:44:28;99248.09;;;19.22;67.39
52719;BME280;38616;42.140;24.760;2023-05-28T03:46:53;99255.97;;;19.24;65.79
52719;BME280;38616;42.140;24.760;2023-05-28T03:49:18;99251.88;;;19.17;66.89
52719;BME280;38616;42.140;24.760;2023-05-28T03:51:44;99239.47;;;19.11;67.28
52719;BME280;38616;42.140;24.760;2023-05-28T03:54:09;99243.06;;;19.12;67.68
52719;BME280;38616;42.140;24.760;2023-05-28T03:56:35;99250.50;;;19.11;67.29
52719;BME280;38616;42.140;24.760;2023-05-28T03:59:01;99260.03;;;19.01;66.08
52719;BME280;38616;42.140;24.760;2023-05-28T04:01:27;99266.66;;;18.88;66.62
52719;BME280;38616;42.140;24.760;2023-05-28T04:03:53;99265.50;;;18.89;66.18
52719;BME280;38616;42.140;24.760;2023-05-28T04:06:19;99267.84;;;18.99;66.62
52719;BME280;38616;42.140;24.760;2023-05-28T04:08:44;99260.94;;;19.05;67.33
52719;BME280;38616;42.140;24.760;2023-05-28T04:11:10;99268.63;;;19.00;68.10
52719;BME280;38616;42.140;24.760;2023-05-28T04:13:35;99269.44;;;19.13;68.19
52719;BME280;38616;42.140;24.760;2023-05-28T04:16:00;99277.56;;;19.22;67.76
52719;BME280;38616;42.140;24.760;2023-05-28T04:18:26;99270.34;;;19.29;68.36
52719;BME280;38616;42.140;24.760;2023-05-28T04:20:52;99274.94;;;19.25;68.74
52719;BME280;38616;42.140;24.760;2023-05-28T04:23:17;99277.56;;;19.09;69.26
52719;BME280;38616;42.140;24.760;2023-05-28T04:25:43;99278.13;;;19.27;69.37
52719;BME280;38616;42.140;24.760;2023-05-28T04:28:08;99276.53;;;19.26;70.06
52719;BME280;38616;42.140;24.760;2023-05-28T04:30:34;99285.56;;;19.39;70.04
52719;BME280;38616;42.140;24.760;2023-05-28T04:32:59;99281.09;;;19.34;69.65
52719;BME280;38616;42.140;24.760;2023-05-28T04:35:24;99290.28;;;19.39;69.21
52719;BME280;38616;42.140;24.760;2023-05-28T04:37:51;99288.16;;;19.48;68.88
52719;BME280;38616;42.140;24.760;2023-05-28T04:40:17;99291.66;;;19.32;69.49
52719;BME280;38616;42.140;24.760;2023-05-28T04:42:42;99297.19;;;19.32;69.59
52719;BME280;38616;42.140;24.760;2023-05-28T04:45:12;99300.47;;;19.38;69.86
52719;BME280;38616;42.140;24.760;2023-05-28T04:47:38;99304.75;;;19.23;70.51
52719;BME280;38616;42.140;24.760;2023-05-28T04:50:04;99304.41;;;19.12;71.37
52719;BME280;38616;42.140;24.760;2023-05-28T04:52:31;99308.75;;;19.13;71.22
52719;BME280;38616;42.140;24.760;2023-05-28T04:54:58;99304.97;;;19.30;70.17
52719;BME280;38616;42.140;24.760;2023-05-28T04:57:23;99309.13;;;19.24;70.07
52719;BME280;38616;42.140;24.760;2023-05-28T04:59:49;99308.66;;;19.34;69.77
52719;BME280;38616;42.140;24.760;2023-05-28T05:02:14;99310.28;;;19.11;70.22
52719;BME280;38616;42.140;24.760;2023-05-28T05:04:43;99309.69;;;19.17;70.68
52719;BME280;38616;42.140;24.760;2023-05-28T05:07:11;99306.69;;;19.23;70.23
52719;BME280;38616;42.140;24.760;2023-05-28T05:09:36;99306.59;;;19.31;70.02
52719;BME280;38616;42.140;24.760;2023-05-28T05:12:02;99314.63;;;19.12;70.94
52719;BME280;38616;42.140;24.760;2023-05-28T05:14:27;99307.06;;;19.21;70.61
52719;BME280;38616;42.140;24.760;2023-05-28T05:16:53;99317.03;;;19.26;70.36
52719;BME280;38616;42.140;24.760;2023-05-28T05:19:18;99305.00;;;19.18;69.88
52719;BME280;38616;42.140;24.760;2023-05-28T05:24:15;99324.25;;;19.18;69.95
52719;BME280;38616;42.140;24.760;2023-05-28T05:26:40;99314.16;;;19.10;70.70
52719;BME280;38616;42.140;24.760;2023-05-28T05:29:06;99319.91;;;19.17;70.54
52719;BME280;38616;42.140;24.760;2023-05-28T05:31:31;99320.25;;;19.15;70.24
52719;BME280;38616;42.140;24.760;2023-05-28T05:33:56;99333.91;;;19.24;70.33
52719;BME280;38616;42.140;24.760;2023-05-28T05:36:22;99334.13;;;19.07;71.45
52719;BME280;38616;42.140;24.760;2023-05-28T05:38:47;99335.50;;;19.13;71.97
52719;BME280;38616;42.140;24.760;2023-05-28T05:41:13;99340.78;;;19.18;71.52
52719;BME280;38616;42.140;24.760;2023-05-28T05:43:38;99354.56;;;19.18;71.52
52719;BME280;38616;42.140;24.760;2023-05-28T05:46:04;99345.47;;;19.30;70.91
52719;BME280;38616;42.140;24.760;2023-05-28T05:48:30;99353.28;;;19.40;70.95
52719;BME280;38616;42.140;24.760;2023-05-28T05:50:55;99340.06;;;19.46;70.75
52719;BME280;38616;42.140;24.760;2023-05-28T05:53:22;99353.50;;;19.35;71.50
52719;BME280;38616;42.140;24.760;2023-05-28T05:55:47;99351.53;;;19.48;71.45
52719;BME280;38616;42.140;24.760;2023-05-28T05:58:13;99348.34;;;19.33;71.40
52719;BME280;38616;42.140;24.760;2023-05-28T06:00:40;99347.22;;;19.22;71.46
52719;BME280;38616;42.140;24.760;2023-05-28T06:03:09;99349.94;;;18.97;72.24
52719;BME280;38616;42.140;24.760;2023-05-28T06:05:35;99352.09;;;18.92;73.26
52719;BME280;38616;42.140;24.760;2023-05-28T06:08:01;99350.13;;;18.80;73.81
52719;BME280;38616;42.140;24.760;2023-05-28T06:10:28;99353.09;;;18.74;75.04
52719;BME280;38616;42.140;24.760;2023-05-28T06:12:54;99352.13;;;19.04;74.30
52719;BME280;38616;42.140;24.760;2023-05-28T06:15:20;99342.25;;;19.15;73.80
52719;BME280;38616;42.140;24.760;2023-05-28T06:17:47;99356.38;;;19.39;72.37
52719;BME280;38616;42.140;24.760;2023-05-28T06:20:12;99357.06;;;19.36;72.35
52719;BME280;38616;42.140;24.760;2023-05-28T06:22:39;99348.22;;;19.17;72.44
52719;BME280;38616;42.140;24.760;2023-05-28T06:25:05;99347.22;;;19.10;72.98
52719;BME280;38616;42.140;24.760;2023-05-28T06:27:32;99352.94;;;19.04;74.04
52719;BME280;38616;42.140;24.760;2023-05-28T06:29:57;99355.69;;;19.04;74.02
52719;BME280;38616;42.140;24.760;2023-05-28T06:32:22;99351.19;;;19.00;74.43
52719;BME280;38616;42.140;24.760;2023-05-28T06:34:48;99353.94;;;18.87;74.90
52719;BME280;38616;42.140;24.760;2023-05-28T06:37:13;99349.81;;;19.06;74.01
52719;BME280;38616;42.140;24.760;2023-05-28T06:39:39;99336.06;;;18.94;74.14
52719;BME280;38616;42.140;24.760;2023-05-28T06:42:06;99339.94;;;18.93;74.50
52719;BME280;38616;42.140;24.760;2023-05-28T06:44:32;99342.84;;;19.09;73.65
52719;BME280;38616;42.140;24.760;2023-05-28T06:46:58;99340.56;;;19.11;73.44
52719;BME280;38616;42.140;24.760;2023-05-28T06:49:23;99345.38;;;19.26;73.07
52719;BME280;38616;42.140;24.760;2023-05-28T06:51:49;99347.53;;;19.33;72.77
52719;BME280;38616;42.140;24.760;2023-05-28T06:54:14;99344.47;;;19.22;72.88
52719;BME280;38616;42.140;24.760;2023-05-28T06:56:40;99350.06;;;19.13;73.82
52719;BME280;38616;42.140;24.760;2023-05-28T06:59:05;99355.34;;;19.18;74.09
52719;BME280;38616;42.140;24.760;2023-05-28T07:01:30;99354.56;;;19.18;74.10
52719;BME280;38616;42.140;24.760;2023-05-28T07:03:56;99353.50;;;19.23;73.72
52719;BME280;38616;42.140;24.760;2023-05-28T07:06:21;99355.09;;;19.24;73.69
52719;BME280;38616;42.140;24.760;2023-05-28T07:08:47;99353.38;;;19.44;73.34
52719;BME280;38616;42.140;24.760;2023-05-28T07:11:13;99360.47;;;19.45;73.14
52719;BME280;38616;42.140;24.760;2023-05-28T07:13:39;99350.97;;;19.55;72.57
52719;BME280;38616;42.140;24.760;2023-05-28T07:16:06;99353.25;;;19.53;72.20
52719;BME280;38616;42.140;24.760;2023-05-28T07:18:31;99353.56;;;19.63;72.41
52719;BME280;38616;42.140;24.760;2023-05-28T07:20:57;99351.50;;;19.60;71.96
52719;BME280;38616;42.140;24.760;2023-05-28T07:23:22;99338.78;;;19.56;72.22
52719;BME280;38616;42.140;24.760;2023-05-28T07:25:48;99341.81;;;19.79;71.29
52719;BME280;38616;42.140;24.760;2023-05-28T07:28:13;99341.13;;;19.82;71.24
52719;BME280;38616;42.140;24.760;2023-05-28T07:30:41;99335.16;;;19.80;71.91
52719;BME280;38616;42.140;24.760;2023-05-28T07:33:06;99337.84;;;19.64;72.90
52719;BME280;38616;42.140;24.760;2023-05-28T07:35:32;99335.56;;;19.54;72.62
52719;BME280;38616;42.140;24.760;2023-05-28T07:37:57;99337.47;;;19.78;72.63
52719;BME280;38616;42.140;24.760;2023-05-28T07:40:23;99347.97;;;19.60;71.75
52719;BME280;38616;42.140;24.760;2023-05-28T07:42:49;99350.38;;;19.49;73.26
52719;BME280;38616;42.140;24.760;2023-05-28T07:45:14;99357.41;;;19.46;72.97
52719;BME280;38616;42.140;24.760;2023-05-28T07:47:40;99356.84;;;19.16;72.47
52719;BME280;38616;42.140;24.760;2023-05-28T07:50:06;99357.75;;;19.32;73.94
52719;BME280;38616;42.140;24.760;2023-05-28T07:52:35;99365.44;;;19.39;74.60
52719;BME280;38616;42.140;24.760;2023-05-28T07:55:01;99351.06;;;19.58;73.34
52719;BME280;38616;42.140;24.760;2023-05-28T07:57:28;99346.91;;;19.64;74.47
52719;BME280;38616;42.140;24.760;2023-05-28T07:59:54;99350.25;;;19.58;74.34
52719;BME280;38616;42.140;24.760;2023-05-28T08:02:20;99345.13;;;19.31;76.35
52719;BME280;38616;42.140;24.760;2023-05-28T08:04:45;99343.53;;;19.30;76.24
52719;BME280;38616;42.140;24.760;2023-05-28T08:07:11;99350.06;;;19.26;75.93
52719;BME280;38616;42.140;24.760;2023-05-28T08:09:38;99352.44;;;19.52;75.02
52719;BME280;38616;42.140;24.760;2023-05-28T08:12:04;99345.47;;;19.30;75.72
52719;BME280;38616;42.140;24.760;2023-05-28T08:14:29;99345.47;;;19.30;77.22
52719;BME280;38616;42.140;24.760;2023-05-28T08:16:55;99347.66;;;19.37;76.25
52719;BME280;38616;42.140;24.760;2023-05-28T08:19:20;99348.44;;;19.37;75.93
52719;BME280;38616;42.140;24.760;2023-05-28T08:21:46;99342.34;;;19.44;75.57
52719;BME280;38616;42.140;24.760;2023-05-28T08:24:11;99352.09;;;19.54;75.52
52719;BME280;38616;42.140;24.760;2023-05-28T08:26:37;99339.66;;;19.85;73.97
52719;BME280;38616;42.140;24.760;2023-05-28T08:29:03;99334.47;;;19.96;73.26
52719;BME280;38616;42.140;24.760;2023-05-28T08:31:31;99339.97;;;19.96;73.67
52719;BME280;38616;42.140;24.760;2023-05-28T08:33:57;99328.78;;;20.04;73.58
52719;BME280;38616;42.140;24.760;2023-05-28T08:36:22;99333.25;;;20.09;72.55
52719;BME280;38616;42.140;24.760;2023-05-28T08:38:48;99340.47;;;20.14;70.99
52719;BME280;38616;42.140;24.760;2023-05-28T08:41:14;99333.50;;;20.04;71.65
52719;BME280;38616;42.140;24.760;2023-05-28T08:43:40;99328.59;;;20.26;70.97
52719;BME280;38616;42.140;24.760;2023-05-28T08:46:05;99325.28;;;20.20;71.61
52719;BME280;38616;42.140;24.760;2023-05-28T08:48:33;99316.47;;;20.14;70.77
52719;BME280;38616;42.140;24.760;2023-05-28T08:51:00;99327.31;;;20.07;70.71
52719;BME280;38616;42.140;24.760;2023-05-28T08:53:26;99326.75;;;20.30;70.63
52719;BME280;38616;42.140;24.760;2023-05-28T08:55:56;99328.91;;;20.52;70.69
52719;BME280;38616;42.140;24.760;2023-05-28T08:58:21;99325.72;;;20.66;70.21
52719;BME280;38616;42.140;24.760;2023-05-28T09:00:47;99331.06;;;20.75;70.44
52719;BME280;38616;42.140;24.760;2023-05-28T09:03:13;99320.28;;;20.86;69.02
52719;BME280;38616;42.140;24.760;2023-05-28T09:05:39;99327.41;;;20.71;68.59
52719;BME280;38616;42.140;24.760;2023-05-28T09:08:09;99327.84;;;20.73;68.97
52719;BME280;38616;42.140;24.760;2023-05-28T09:10:38;99330.53;;;20.70;69.31
52719;BME280;38616;42.140;24.760;2023-05-28T09:13:04;99324.50;;;20.96;68.52
52719;BME280;38616;42.140;24.760;2023-05-28T09:15:30;99312.19;;;21.09;68.29
52719;BME280;38616;42.140;24.760;2023-05-28T09:17:58;99325.09;;;21.21;68.61
52719;BME280;38616;42.140;24.760;2023-05-28T09:20:24;99322.03;;;21.26;68.11
52719;BME280;38616;42.140;24.760;2023-05-28T09:23:01;99320.09;;;21.11;68.55
52719;BME280;38616;42.140;24.760;2023-05-28T09:25:28;99319.03;;;21.16;67.46
52719;BME280;38616;42.140;24.760;2023-05-28T09:27:54;99318.34;;;21.19;67.70
52719;BME280;38616;42.140;24.760;2023-05-28T09:30:20;99319.25;;;21.43;67.17
52719;BME280;38616;42.140;24.760;2023-05-28T09:32:58;99324.25;;;21.37;66.10
52719;BME280;38616;42.140;24.760;2023-05-28T09:35:25;99327.25;;;21.48;65.25
52719;BME280;38616;42.140;24.760;2023-05-28T09:38:04;99322.38;;;21.41;63.71
52719;BME280;38616;42.140;24.760;2023-05-28T09:40:39;99318.16;;;21.47;63.47
52719;BME280;38616;42.140;24.760;2023-05-28T09:43:05;99321.50;;;21.37;63.99
52719;BME280;38616;42.140;24.760;2023-05-28T09:45:32;99313.66;;;21.23;62.63
52719;BME280;38616;42.140;24.760;2023-05-28T09:47:58;99312.22;;;21.29;64.19
52719;BME280;38616;42.140;24.760;2023-05-28T09:50:25;99311.88;;;21.31;63.98
52719;BME280;38616;42.140;24.760;2023-05-28T09:52:54;99310.50;;;21.40;62.59
52719;BME280;38616;42.140;24.760;2023-05-28T09:55:25;99302.59;;;21.75;64.17
52719;BME280;38616;42.140;24.760;2023-05-28T09:58:01;99305.63;;;21.69;63.50
52719;BME280;38616;42.140;24.760;2023-05-28T10:00:42;99300.66;;;21.59;64.22
52719;BME280;38616;42.140;24.760;2023-05-28T10:05:43;99293.75;;;21.69;63.43
52719;BME280;38616;42.140;24.760;2023-05-28T10:08:11;99296.63;;;21.92;63.42
52719;BME280;38616;42.140;24.760;2023-05-28T10:10:39;99288.22;;;22.08;60.71
52719;BME280;38616;42.140;24.760;2023-05-28T10:13:06;99287.22;;;21.77;60.06
52719;BME280;38616;42.140;24.760;2023-05-28T10:15:38;99283.88;;;21.88;61.12
52719;BME280;38616;42.140;24.760;2023-05-28T10:18:05;99285.31;;;21.62;59.04
52719;BME280;38616;42.140;24.760;2023-05-28T10:20:31;99283.03;;;21.48;59.60
52719;BME280;38616;42.140;24.760;2023-05-28T10:22:57;99290.44;;;21.44;59.01
52719;BME280;38616;42.140;24.760;2023-05-28T10:25:23;99279.94;;;21.14;60.88
52719;BME280;38616;42.140;24.760;2023-05-28T10:27:49;99274.41;;;21.49;60.62
52719;BME280;38616;42.140;24.760;2023-05-28T10:30:34;99253.69;;;21.79;59.62
52719;BME280;38616;42.140;24.760;2023-05-28T10:33:03;99258.69;;;21.93;58.39
52719;BME280;38616;42.140;24.760;2023-05-28T10:35:32;99254.09;;;21.41;59.73
52719;BME280;38616;42.140;24.760;2023-05-28T10:38:05;99245.97;;;21.49;60.64
52719;BME280;38616;42.140;24.760;2023-05-28T10:40:33;99237.16;;;21.82;60.02
52719;BME280;38616;42.140;24.760;2023-05-28T10:42:59;99257.34;;;20.92;60.67
52719;BME280;38616;42.140;24.760;2023-05-28T10:45:38;99255.19;;;20.69;62.29
52719;BME280;38616;42.140;24.760;2023-05-28T10:48:04;99244.16;;;21.01;61.30
52719;BME280;38616;42.140;24.760;2023-05-28T10:50:30;99242.75;;;21.47;60.49
52719;BME280;38616;42.140;24.760;2023-05-28T10:53:07;99244.06;;;20.98;59.72
52719;BME280;38616;42.140;24.760;2023-05-28T10:55:53;99244.53;;;20.67;60.68
52719;BME280;38616;42.140;24.760;2023-05-28T10:58:34;99252.16;;;20.42;61.81
52719;BME280;38616;42.140;24.760;2023-05-28T11:03:42;99256.25;;;20.16;63.04
52719;BME280;38616;42.140;24.760;2023-05-28T11:06:09;99244.59;;;20.23;66.07
52719;BME280;38616;42.140;24.760;2023-05-28T11:08:44;99251.91;;;20.47;66.46
52719;BME280;38616;42.140;24.760;2023-05-28T11:11:14;99255.13;;;20.65;65.92
52719;BME280;38616;42.140;24.760;2023-05-28T11:13:44;99251.78;;;20.76;66.81
52719;BME280;38616;42.140;24.760;2023-05-28T11:16:11;99251.56;;;20.97;67.46
52719;BME280;38616;42.140;24.760;2023-05-28T11:18:40;99247.53;;;20.94;67.23
52719;BME280;38616;42.140;24.760;2023-05-28T11:21:22;99256.41;;;21.20;68.23
52719;BME280;38616;42.140;24.760;2023-05-28T11:23:59;99248.78;;;21.33;68.42
52719;BME280;38616;42.140;24.760;2023-05-28T11:26:24;99255.69;;;21.43;68.37
52719;BME280;38616;42.140;24.760;2023-05-28T11:28:50;99253.38;;;21.45;66.83
52719;BME280;38616;42.140;24.760;2023-05-28T11:31:16;99250.28;;;21.30;68.43
52719;BME280;38616;42.140;24.760;2023-05-28T11:33:41;99237.19;;;21.27;67.85
52719;BME280;38616;42.140;24.760;2023-05-28T11:36:07;99236.34;;;21.43;68.37
52719;BME280;38616;42.140;24.760;2023-05-28T11:38:33;99233.72;;;21.30;68.30
52719;BME280;38616;42.140;24.760;2023-05-28T11:41:01;99227.34;;;21.46;68.00
52719;BME280;38616;42.140;24.760;2023-05-28T11:43:27;99235.66;;;21.65;67.58
52719;BME280;38616;42.140;24.760;2023-05-28T11:46:00;99228.44;;;21.61;67.49
52719;BME280;38616;42.140;24.760;2023-05-28T11:48:26;99246.38;;;21.51;67.75
52719;BME280;38616;42.140;24.760;2023-05-28T11:50:59;99234.25;;;21.55;68.22
52719;BME280;38616;42.140;24.760;2023-05-28T11:53:38;99234.81;;;21.25;68.98
52719;BME280;38616;42.140;24.760;2023-05-28T11:56:04;99240.41;;;21.29;70.11
52719;BME280;38616;42.140;24.760;2023-05-28T11:58:29;99234.38;;;21.23;69.81
52719;BME280;38616;42.140;24.760;2023-05-28T12:00:56;99225.53;;;21.34;70.12
52719;BME280;38616;42.140;24.760;2023-05-28T12:05:50;99232.28;;;21.36;70.78
52719;BME280;38616;42.140;24.760;2023-05-28T12:08:17;99237.81;;;21.56;69.90
52719;BME280;38616;42.140;24.760;2023-05-28T12:10:43;99247.34;;;21.39;68.57
52719;BME280;38616;42.140;24.760;2023-05-28T12:13:12;99242.75;;;21.47;68.66
52719;BME280;38616;42.140;24.760;2023-05-28T12:15:37;99246.69;;;21.46;68.73
52719;BME280;38616;42.140;24.760;2023-05-28T12:18:03;99250.69;;;21.48;68.85
52719;BME280;38616;42.140;24.760;2023-05-28T12:20:35;99256.66;;;21.50;68.37
52719;BME280;38616;42.140;24.760;2023-05-28T12:25:27;99264.09;;;21.10;71.37
52719;BME280;38616;42.140;24.760;2023-05-28T12:27:52;99256.75;;;21.18;71.27
52719;BME280;38616;42.140;24.760;2023-05-28T12:30:18;99267.00;;;21.18;71.60
52719;BME280;38616;42.140;24.760;2023-05-28T12:32:43;99262.78;;;21.24;71.40
52719;BME280;38616;42.140;24.760;2023-05-28T12:35:10;99257.56;;;21.19;71.81
52719;BME280;38616;42.140;24.760;2023-05-28T12:37:35;99243.81;;;21.22;71.37
52719;BME280;38616;42.140;24.760;2023-05-28T12:40:01;99258.63;;;21.14;71.58
52719;BME280;38616;42.140;24.760;2023-05-28T12:42:26;99250.28;;;21.10;72.00
52719;BME280;38616;42.140;24.760;2023-05-28T12:44:53;99246.97;;;21.05;72.04
52719;BME280;38616;42.140;24.760;2023-05-28T12:47:18;99243.81;;;21.22;71.79
52719;BME280;38616;42.140;24.760;2023-05-28T12:49:44;99244.38;;;21.12;71.07
52719;BME280;38616;42.140;24.760;2023-05-28T12:52:09;99250.13;;;21.03;71.33
52719;BME280;38616;42.140;24.760;2023-05-28T12:54:35;99239.84;;;21.20;71.12
52719;BME280;38616;42.140;24.760;2023-05-28T12:57:00;99243.81;;;21.22;71.01
52719;BME280;38616;42.140;24.760;2023-05-28T12:59:27;99239.25;;;21.30;71.32
52719;BME280;38616;42.140;24.760;2023-05-28T13:01:53;99232.38;;;21.40;71.37